Time;durP1;ratioP1;P1;durP2;ratioP2;P2;SDS_P1;SDS_P2;PMS_P1;PMS_P2;Temp;Humidity;BMP_temperature;BMP_pressure;BME280_temperature;BME280_humidity;BME280_pressure;Samples;Min_cycle;Max_cycle;Signal;HPM_P1;HPM_P2
2023/03/23 00:00:00;;;;;;;6.00;4.53;;;6.90;97.90;;;;;;4981475;28;20572;-76
2023/03/23 00:02:27;;;;;;;5.93;4.40;;;6.90;98.00;;;;;;4979642;28;20597;-76
2023/03/23 00:04:54;;;;;;;6.07;4.97;;;6.80;98.00;;;;;;4985975;28;20185;-77
2023/03/23 00:07:21;;;;;;;5.10;4.50;;;6.80;97.90;;;;;;4981092;28;20666;-77
2023/03/23 00:09:53;;;;;;;8.77;5.20;;;6.80;97.80;;;;;;4979497;28;20178;-77
2023/03/23 00:12:21;;;;;;;3.87;3.53;;;6.80;97.90;;;;;;4981840;28;20214;-77
2023/03/23 00:14:47;;;;;;;4.73;3.77;;;6.70;98.00;;;;;;4982578;28;20178;-76
2023/03/23 00:17:14;;;;;;;8.63;4.60;;;6.70;98.00;;;;;;4982411;28;20622;-77
2023/03/23 00:19:51;;;;;;;7.47;5.00;;;6.70;98.10;;;;;;4984427;28;20178;-77
2023/03/23 00:22:19;;;;;;;9.27;4.33;;;6.60;98.10;;;;;;4987288;28;20205;-77
2023/03/23 00:24:45;;;;;;;7.17;4.53;;;6.60;98.10;;;;;;4983909;28;20190;-78
2023/03/23 00:27:14;;;;;;;4.50;4.07;;;6.60;98.10;;;;;;4981686;28;20824;-77
2023/03/23 00:29:41;;;;;;;11.53;5.37;;;6.60;98.10;;;;;;4989898;28;20213;-77
2023/03/23 00:32:12;;;;;;;8.60;5.17;;;6.50;98.10;;;;;;4980914;28;20682;-77
2023/03/23 00:34:43;;;;;;;8.07;4.90;;;6.50;98.10;;;;;;4980742;28;20574;-77
2023/03/23 00:37:09;;;;;;;10.37;5.53;;;6.50;98.10;;;;;;4981986;28;20182;-77
2023/03/23 00:39:36;;;;;;;4.90;4.33;;;6.50;98.20;;;;;;4985382;28;20277;-77
2023/03/23 00:42:03;;;;;;;8.67;5.23;;;6.50;98.20;;;;;;4980714;28;20576;-76
2023/03/23 00:44:31;;;;;;;9.23;5.47;;;6.50;98.20;;;;;;4984636;28;20194;-77
2023/03/23 00:46:58;;;;;;;9.17;5.70;;;6.40;98.30;;;;;;4981515;28;20188;-77
2023/03/23 00:49:25;;;;;;;6.27;5.33;;;6.40;98.30;;;;;;4981255;28;20224;-77
2023/03/23 00:51:53;;;;;;;8.77;5.63;;;6.40;98.30;;;;;;4986087;28;20654;-77
2023/03/23 00:54:19;;;;;;;6.57;5.10;;;6.40;98.40;;;;;;4978123;28;20799;-77
2023/03/23 00:56:45;;;;;;;8.83;6.07;;;6.50;98.50;;;;;;4978667;28;20190;-77
2023/03/23 00:59:11;;;;;;;6.23;5.63;;;6.50;98.50;;;;;;4987825;28;20189;-77
2023/03/23 01:01:37;;;;;;;9.90;5.63;;;6.50;98.50;;;;;;4983710;28;20185;-77
2023/03/23 01:04:04;;;;;;;10.70;6.27;;;6.50;98.50;;;;;;4985355;28;20182;-77
2023/03/23 01:06:40;;;;;;;10.03;5.97;;;6.50;98.50;;;;;;4983967;28;20190;-77
2023/03/23 01:09:08;;;;;;;10.97;6.77;;;6.50;98.50;;;;;;4979597;28;20178;-77
2023/03/23 01:11:34;;;;;;;12.97;6.30;;;6.50;98.50;;;;;;4984327;28;20596;-77
2023/03/23 01:14:01;;;;;;;10.27;7.13;;;6.50;98.50;;;;;;4988135;28;20193;-76
2023/03/23 01:16:26;;;;;;;13.87;7.07;;;6.50;98.50;;;;;;4981694;28;20182;-77
2023/03/23 01:18:52;;;;;;;12.00;7.43;;;6.60;98.50;;;;;;4983253;28;20476;-77
2023/03/23 01:21:20;;;;;;;9.93;7.07;;;6.60;98.50;;;;;;4982107;28;20209;-77
2023/03/23 01:23:46;;;;;;;7.23;6.17;;;6.60;98.50;;;;;;4979229;28;20281;-77
2023/03/23 01:26:14;;;;;;;12.13;6.97;;;6.60;98.50;;;;;;4979515;28;20182;-76
2023/03/23 01:28:40;;;;;;;15.40;6.53;;;6.70;98.50;;;;;;4980816;28;20186;-77
2023/03/23 01:31:09;;;;;;;10.67;6.43;;;6.70;98.50;;;;;;4969435;28;20233;-77
2023/03/23 01:33:35;;;;;;;12.53;7.90;;;6.80;98.50;;;;;;4980965;28;20211;-76
2023/03/23 01:36:11;;;;;;;10.97;6.63;;;6.80;98.50;;;;;;4977761;28;20751;-76
2023/03/23 01:38:37;;;;;;;12.40;7.43;;;6.80;98.50;;;;;;4983327;28;20185;-76
2023/03/23 01:41:03;;;;;;;6.83;5.87;;;6.80;98.50;;;;;;4978563;28;20183;-76
2023/03/23 01:43:29;;;;;;;7.50;5.57;;;6.80;98.50;;;;;;4983997;28;20197;-75
2023/03/23 01:45:55;;;;;;;5.80;4.63;;;6.80;98.30;;;;;;4982332;28;20532;-77
2023/03/23 01:48:27;;;;;;;10.87;5.80;;;6.80;98.50;;;;;;4983008;28;20193;-77
2023/03/23 01:51:07;;;;;;;6.43;4.93;;;6.80;98.50;;;;;;4979464;28;20206;-76
2023/03/23 01:53:59;;;;;;;7.93;5.43;;;6.70;98.50;;;;;;4980065;28;20323;-76
2023/03/23 01:56:32;;;;;;;9.77;5.73;;;6.70;98.50;;;;;;4946479;29;20715;-76
2023/03/23 01:58:59;;;;;;;12.57;5.90;;;6.70;98.50;;;;;;4945398;29;20265;-76
2023/03/23 02:01:26;;;;;;;7.73;5.13;;;6.70;98.40;;;;;;4946190;29;21142;-77
2023/03/23 02:03:55;;;;;;;7.07;5.17;;;6.60;98.50;;;;;;4946530;28;20274;-77
2023/03/23 02:06:21;;;;;;;7.77;4.83;;;6.60;98.50;;;;;;4945857;28;20595;-77
2023/03/23 02:08:49;;;;;;;8.47;5.63;;;6.60;98.50;;;;;;4945649;29;20195;-77
2023/03/23 02:11:17;;;;;;;6.73;4.77;;;6.50;98.50;;;;;;4945089;29;20648;-77
2023/03/23 02:13:43;;;;;;;4.20;3.87;;;6.50;98.50;;;;;;4945772;29;20191;-76
2023/03/23 02:16:46;;;;;;;5.53;4.60;;;6.50;98.50;;;;;;4944685;29;20191;-77
2023/03/23 02:19:50;;;;;;;7.23;4.67;;;6.50;98.50;;;;;;4944581;29;20186;-76
2023/03/23 02:22:16;;;;;;;7.73;3.57;;;6.50;98.50;;;;;;4940910;29;20685;-77
2023/03/23 02:25:02;;;;;;;5.23;4.23;;;6.60;98.50;;;;;;4946364;28;20293;-76
2023/03/23 02:28:19;;;;;;;9.97;4.33;;;6.60;98.50;;;;;;4945968;29;20273;-76
2023/03/23 02:30:53;;;;;;;4.73;4.30;;;6.60;98.50;;;;;;4945836;29;20606;-77
2023/03/23 02:33:38;;;;;;;7.17;4.50;;;6.70;98.50;;;;;;4962375;28;20644;-77
2023/03/23 02:36:37;;;;;;;6.07;4.43;;;6.70;98.50;;;;;;4982508;28;20664;-76
2023/03/23 02:39:10;;;;;;;4.90;4.30;;;6.70;98.50;;;;;;4946382;28;20199;-76
2023/03/23 02:41:53;;;;;;;5.00;4.60;;;6.60;98.50;;;;;;4945929;28;20187;-76
2023/03/23 02:44:19;;;;;;;9.20;5.50;;;6.60;98.50;;;;;;4929852;29;20194;-76
2023/03/23 02:46:45;;;;;;;6.87;4.73;;;6.50;98.50;;;;;;4945307;28;20186;-76
2023/03/23 02:49:15;;;;;;;5.47;4.47;;;6.50;98.50;;;;;;4945735;28;20187;-76
2023/03/23 02:51:43;;;;;;;3.77;3.47;;;6.50;98.50;;;;;;4945540;28;20807;-76
2023/03/23 02:54:10;;;;;;;5.80;4.80;;;6.40;98.50;;;;;;4929716;28;20214;-76
2023/03/23 02:56:36;;;;;;;4.13;3.53;;;6.40;98.30;;;;;;4946760;28;20199;-77
2023/03/23 02:59:02;;;;;;;6.33;3.97;;;6.30;98.20;;;;;;4946787;28;20190;-77
2023/03/23 03:01:28;;;;;;;5.33;3.83;;;6.30;98.20;;;;;;4947832;28;20587;-76
2023/03/23 03:03:57;;;;;;;6.80;4.10;;;6.30;98.00;;;;;;4947463;28;20183;-76
2023/03/23 03:06:36;;;;;;;5.13;4.40;;;6.20;98.10;;;;;;4948285;28;20220;-77
2023/03/23 03:09:18;;;;;;;5.80;4.13;;;6.20;98.00;;;;;;4946246;28;20183;-76
2023/03/23 03:11:50;;;;;;;8.87;5.27;;;6.10;98.20;;;;;;4944920;29;20219;-77
2023/03/23 03:14:31;;;;;;;6.13;4.53;;;6.10;98.20;;;;;;4947008;28;20604;-77
2023/03/23 03:17:01;;;;;;;6.23;4.60;;;6.10;98.10;;;;;;4979023;28;20249;-77
2023/03/23 03:19:30;;;;;;;6.83;4.63;;;6.00;98.30;;;;;;4979417;28;20186;-78
2023/03/23 03:21:58;;;;;;;6.43;4.47;;;6.00;98.30;;;;;;4979875;28;20185;-76
2023/03/23 03:24:27;;;;;;;4.87;4.43;;;5.90;98.20;;;;;;4980814;28;20194;-76
2023/03/23 03:26:57;;;;;;;8.37;4.70;;;5.90;98.20;;;;;;4976201;28;20685;-76
2023/03/23 03:29:47;;;;;;;7.37;4.43;;;5.90;98.40;;;;;;4977908;28;20182;-77
2023/03/23 03:32:16;;;;;;;7.67;3.77;;;5.80;98.30;;;;;;4996844;28;20313;-76
2023/03/23 03:34:42;;;;;;;5.70;4.20;;;5.80;98.40;;;;;;4979970;28;20174;-76
2023/03/23 03:37:11;;;;;;;4.43;3.80;;;5.80;98.50;;;;;;4983671;28;20189;-76
2023/03/23 03:39:37;;;;;;;4.77;3.73;;;5.70;98.50;;;;;;4984009;28;20276;-76
2023/03/23 03:42:04;;;;;;;7.23;3.90;;;5.70;98.50;;;;;;4983833;28;20794;-76
2023/03/23 03:44:29;;;;;;;8.10;3.90;;;5.70;98.50;;;;;;4987149;28;20698;-76
2023/03/23 03:46:55;;;;;;;6.27;3.87;;;5.70;98.50;;;;;;4980103;28;20189;-76
2023/03/23 03:49:22;;;;;;;5.13;4.63;;;5.70;98.50;;;;;;4983228;28;20182;-77
2023/03/23 03:51:48;;;;;;;3.27;3.03;;;5.70;98.50;;;;;;4980332;28;20360;-76
2023/03/23 03:54:13;;;;;;;3.93;3.43;;;5.80;98.50;;;;;;4984619;28;20277;-76
2023/03/23 03:56:40;;;;;;;3.03;2.83;;;5.80;98.50;;;;;;4981383;28;20468;-76
2023/03/23 03:59:09;;;;;;;3.30;2.57;;;5.80;98.50;;;;;;4981852;28;20191;-77
2023/03/23 04:01:37;;;;;;;5.87;2.97;;;5.70;98.50;;;;;;4984408;28;20209;-78
2023/03/23 04:04:06;;;;;;;2.67;2.47;;;5.70;98.50;;;;;;4984026;28;20181;-76
2023/03/23 04:06:35;;;;;;;4.40;2.90;;;5.70;98.50;;;;;;4979517;28;20790;-75
2023/03/23 04:09:05;;;;;;;3.57;2.80;;;5.70;98.50;;;;;;4978830;28;20182;-76
2023/03/23 04:11:32;;;;;;;6.63;3.37;;;5.60;98.50;;;;;;4985449;28;20309;-77
2023/03/23 04:13:57;;;;;;;3.37;2.97;;;5.60;98.50;;;;;;4983037;28;20656;-76
2023/03/23 04:16:23;;;;;;;3.43;2.47;;;5.60;98.50;;;;;;4982826;28;20204;-76
2023/03/23 04:18:49;;;;;;;3.40;2.97;;;5.60;98.50;;;;;;4984528;28;20437;-76
2023/03/23 04:21:16;;;;;;;6.17;3.10;;;5.50;98.50;;;;;;4984037;28;20198;-77
2023/03/23 04:23:41;;;;;;;7.07;2.63;;;5.50;98.50;;;;;;4980662;28;20185;-76
2023/03/23 04:26:07;;;;;;;4.47;2.97;;;5.50;98.50;;;;;;4980517;28;20670;-77
2023/03/23 04:28:33;;;;;;;3.50;2.90;;;5.50;98.50;;;;;;4980716;28;20208;-77
2023/03/23 04:31:00;;;;;;;3.03;2.67;;;5.50;98.50;;;;;;4978899;28;20210;-77
2023/03/23 04:33:27;;;;;;;3.10;2.83;;;5.50;98.50;;;;;;4980804;28;20191;-77
2023/03/23 04:35:55;;;;;;;4.60;2.67;;;5.50;98.50;;;;;;4983584;28;20276;-77
2023/03/23 04:38:24;;;;;;;4.27;2.97;;;5.50;98.50;;;;;;4981763;28;20200;-77
2023/03/23 04:40:51;;;;;;;3.07;2.83;;;5.60;98.50;;;;;;4985270;28;20304;-77
2023/03/23 04:43:22;;;;;;;3.53;2.90;;;5.60;98.50;;;;;;4980076;28;20194;-76
2023/03/23 04:45:55;;;;;;;3.53;3.10;;;5.60;98.50;;;;;;4981806;28;20277;-78
2023/03/23 04:48:25;;;;;;;4.93;3.30;;;5.60;98.50;;;;;;4981656;28;20185;-77
2023/03/23 04:50:52;;;;;;;3.40;2.53;;;5.60;98.50;;;;;;4982495;28;20201;-76
2023/03/23 04:53:18;;;;;;;3.17;2.87;;;5.60;98.50;;;;;;4978192;28;20190;-76
2023/03/23 04:55:44;;;;;;;2.90;2.70;;;5.60;98.50;;;;;;4977635;28;20557;-76
2023/03/23 04:58:14;;;;;;;2.77;2.43;;;5.70;98.50;;;;;;4979389;28;20235;-76
2023/03/23 05:00:43;;;;;;;2.97;2.77;;;5.70;98.50;;;;;;4983237;28;20193;-77
2023/03/23 05:03:16;;;;;;;3.20;2.90;;;5.70;98.50;;;;;;4984059;28;20329;-76
2023/03/23 05:05:41;;;;;;;4.77;3.73;;;5.80;98.50;;;;;;4981404;28;20186;-76
2023/03/23 05:08:07;;;;;;;4.43;2.70;;;5.80;98.50;;;;;;4981461;28;20182;-76
2023/03/23 05:10:33;;;;;;;3.87;3.00;;;5.80;98.50;;;;;;4978421;28;20182;-77
2023/03/23 05:12:58;;;;;;;5.23;3.23;;;5.80;98.50;;;;;;4981204;28;20244;-78
2023/03/23 05:15:24;;;;;;;3.43;3.07;;;5.90;98.50;;;;;;4980904;28;20185;-77
2023/03/23 05:17:51;;;;;;;4.67;3.47;;;6.00;98.50;;;;;;4985045;28;20185;-77
2023/03/23 05:20:20;;;;;;;6.07;4.10;;;6.00;98.50;;;;;;4981386;28;20675;-78
2023/03/23 05:22:49;;;;;;;6.37;3.33;;;6.10;98.50;;;;;;4983372;28;20186;-78
2023/03/23 05:25:18;;;;;;;3.23;2.93;;;6.20;98.50;;;;;;4978807;28;20608;-72
2023/03/23 05:27:48;;;;;;;4.33;2.73;;;6.30;98.50;;;;;;4983191;28;20178;-77
2023/03/23 05:30:16;;;;;;;4.37;3.37;;;6.30;98.50;;;;;;4966110;28;20221;-75
2023/03/23 05:32:44;;;;;;;4.93;3.60;;;6.40;98.50;;;;;;4974045;28;20230;-76
2023/03/23 05:35:11;;;;;;;6.10;3.77;;;6.50;98.50;;;;;;4980852;28;20190;-76
2023/03/23 05:37:38;;;;;;;5.40;4.77;;;6.60;98.50;;;;;;4979617;28;20608;-77
2023/03/23 05:40:06;;;;;;;6.13;3.73;;;6.60;98.50;;;;;;4977564;28;20197;-75
2023/03/23 05:42:35;;;;;;;3.50;3.20;;;6.70;98.50;;;;;;5001120;28;20190;-74
2023/03/23 05:45:05;;;;;;;5.73;4.17;;;6.70;98.50;;;;;;4975113;28;20256;-76
2023/03/23 05:47:31;;;;;;;6.00;4.27;;;6.80;98.50;;;;;;4982763;28;20267;-77
2023/03/23 05:49:58;;;;;;;8.33;5.47;;;6.80;98.50;;;;;;4992768;28;20197;-78
2023/03/23 05:52:24;;;;;;;11.73;5.87;;;6.90;98.50;;;;;;4995961;28;20320;-77
2023/03/23 05:54:51;;;;;;;9.17;5.73;;;6.90;98.50;;;;;;4979385;28;20189;-77
2023/03/23 05:57:18;;;;;;;10.30;5.47;;;7.00;98.50;;;;;;4988564;28;20194;-75
2023/03/23 05:59:44;;;;;;;8.77;5.30;;;7.10;98.50;;;;;;4988324;28;20200;-78
2023/03/23 06:02:10;;;;;;;6.03;5.43;;;7.10;98.50;;;;;;4988869;28;20201;-78
2023/03/23 06:04:37;;;;;;;5.90;4.37;;;7.20;98.50;;;;;;4980241;28;20631;-73
2023/03/23 06:07:04;;;;;;;7.93;4.93;;;7.30;98.30;;;;;;4979100;28;20177;-73
2023/03/23 06:09:30;;;;;;;7.87;5.30;;;7.30;98.30;;;;;;4981131;28;20190;-72
2023/03/23 06:11:56;;;;;;;8.10;6.00;;;7.40;97.40;;;;;;4978261;28;20252;-72
2023/03/23 06:14:22;;;;;;;10.73;6.30;;;7.40;97.50;;;;;;4977923;28;20178;-73
2023/03/23 06:16:48;;;;;;;7.90;6.47;;;7.50;97.60;;;;;;4979446;28;20189;-73
2023/03/23 06:19:15;;;;;;;10.53;6.80;;;7.50;97.80;;;;;;4982087;28;20746;-74
2023/03/23 06:21:41;;;;;;;11.47;7.50;;;7.60;97.60;;;;;;4973818;28;20189;-73
2023/03/23 06:24:07;;;;;;;11.77;7.30;;;7.70;97.00;;;;;;4981363;28;20216;-74
2023/03/23 06:26:38;;;;;;;10.10;6.37;;;7.70;96.80;;;;;;4981199;28;20174;-73
2023/03/23 06:29:10;;;;;;;9.17;6.40;;;7.70;97.10;;;;;;4977950;28;20249;-73
2023/03/23 06:31:42;;;;;;;10.37;6.77;;;7.70;97.20;;;;;;4978850;28;20210;-72
2023/03/23 06:34:09;;;;;;;7.83;6.43;;;7.70;96.10;;;;;;4980134;28;20252;-73
2023/03/23 06:36:35;;;;;;;10.83;7.10;;;7.70;96.10;;;;;;4980739;28;20548;-72
2023/03/23 06:39:04;;;;;;;10.20;6.97;;;7.70;96.00;;;;;;4978824;28;20667;-72
2023/03/23 06:41:33;;;;;;;10.40;6.90;;;7.70;96.00;;;;;;4981217;28;20675;-73
2023/03/23 06:44:00;;;;;;;16.83;7.17;;;7.80;95.80;;;;;;4976071;28;20182;-72
2023/03/23 06:46:26;;;;;;;8.70;6.83;;;7.90;96.10;;;;;;4980834;28;20201;-72
2023/03/23 06:48:52;;;;;;;13.90;6.80;;;7.90;96.30;;;;;;4980201;28;20275;-73
2023/03/23 06:51:18;;;;;;;13.70;7.30;;;8.00;96.30;;;;;;4979986;28;20209;-72
2023/03/23 06:53:44;;;;;;;10.23;6.90;;;8.20;96.30;;;;;;4982904;28;20175;-72
2023/03/23 06:56:12;;;;;;;14.33;8.17;;;8.30;96.30;;;;;;4981358;28;20185;-72
2023/03/23 06:58:37;;;;;;;14.47;7.57;;;8.40;96.00;;;;;;4976776;28;20933;-73
2023/03/23 07:01:04;;;;;;;10.13;7.17;;;8.60;95.50;;;;;;4980001;28;20363;-73
2023/03/23 07:03:30;;;;;;;8.60;6.37;;;8.70;95.30;;;;;;4979858;28;20699;-73
2023/03/23 07:05:56;;;;;;;8.53;6.83;;;8.80;95.40;;;;;;4980351;28;20197;-72
2023/03/23 07:08:22;;;;;;;11.77;7.63;;;8.80;94.70;;;;;;4982114;28;20182;-73
2023/03/23 07:10:52;;;;;;;7.37;6.17;;;8.90;94.50;;;;;;4980800;28;20209;-73
2023/03/23 07:13:18;;;;;;;11.93;7.40;;;8.90;94.50;;;;;;4988056;28;20188;-73
2023/03/23 07:15:44;;;;;;;17.37;7.90;;;8.90;94.40;;;;;;4983171;28;20179;-74
2023/03/23 07:18:10;;;;;;;11.90;7.57;;;9.00;94.10;;;;;;4982007;28;20194;-73
2023/03/23 07:20:36;;;;;;;9.97;6.90;;;9.00;93.90;;;;;;4987771;28;20259;-73
2023/03/23 07:23:04;;;;;;;8.90;7.17;;;9.10;94.00;;;;;;4982130;28;20650;-73
2023/03/23 07:25:32;;;;;;;8.80;6.00;;;9.20;93.90;;;;;;4981664;28;20200;-72
2023/03/23 07:28:02;;;;;;;8.83;6.67;;;9.20;93.70;;;;;;4983797;28;20174;-73
2023/03/23 07:30:29;;;;;;;10.73;7.13;;;9.30;93.20;;;;;;4981629;28;20571;-72
2023/03/23 07:32:55;;;;;;;10.33;7.60;;;9.30;93.30;;;;;;4980508;28;20586;-72
2023/03/23 07:35:22;;;;;;;12.77;7.40;;;9.40;93.60;;;;;;4982371;28;20308;-72
2023/03/23 07:37:51;;;;;;;12.27;7.40;;;9.50;93.70;;;;;;4980990;28;20178;-72
2023/03/23 07:40:17;;;;;;;8.37;6.30;;;9.70;93.40;;;;;;4979839;28;20696;-73
2023/03/23 07:42:45;;;;;;;7.43;6.40;;;9.80;93.20;;;;;;4982739;28;20264;-73
2023/03/23 07:45:12;;;;;;;10.53;6.67;;;9.90;92.70;;;;;;4981503;28;20896;-74
2023/03/23 07:47:41;;;;;;;9.03;6.97;;;10.00;92.50;;;;;;4982001;28;20213;-74
2023/03/23 07:50:08;;;;;;;10.43;5.57;;;10.10;92.40;;;;;;4981102;28;20178;-73
2023/03/23 07:52:35;;;;;;;9.83;6.20;;;10.20;92.20;;;;;;4983994;28;20217;-73
2023/03/23 07:55:02;;;;;;;7.57;6.57;;;10.30;91.10;;;;;;4977570;28;20186;-73
2023/03/23 07:57:29;;;;;;;11.03;6.30;;;10.40;89.90;;;;;;4984671;28;20193;-76
2023/03/23 07:59:56;;;;;;;7.43;6.00;;;10.50;90.00;;;;;;4980413;28;20185;-75
2023/03/23 08:02:23;;;;;;;7.80;6.05;;;10.60;89.70;;;;;;4983788;28;20186;-77
2023/03/23 08:04:49;;;;;;;7.35;5.43;;;10.70;89.40;;;;;;4985278;28;20179;-75
2023/03/23 08:07:16;;;;;;;9.77;6.07;;;10.90;88.60;;;;;;4978654;28;20240;-75
2023/03/23 08:09:42;;;;;;;6.45;5.63;;;11.00;88.70;;;;;;4982585;28;20675;-76
2023/03/23 08:12:08;;;;;;;10.35;6.75;;;11.20;87.90;;;;;;4984986;28;20245;-75
2023/03/23 08:14:34;;;;;;;7.60;6.13;;;11.30;87.70;;;;;;4979045;28;20632;-75
2023/03/23 08:17:00;;;;;;;8.60;6.25;;;11.50;86.90;;;;;;4985812;28;20186;-74
2023/03/23 08:19:26;;;;;;;8.13;6.05;;;11.70;85.90;;;;;;4983289;28;20256;-75
2023/03/23 08:21:52;;;;;;;7.22;6.07;;;12.00;85.10;;;;;;4982685;28;20742;-74
2023/03/23 08:24:18;;;;;;;7.70;6.05;;;12.30;84.10;;;;;;4979144;28;20178;-74
2023/03/23 08:26:44;;;;;;;8.70;5.70;;;12.80;82.50;;;;;;4981727;28;20647;-74
2023/03/23 08:29:10;;;;;;;8.15;4.88;;;13.50;80.50;;;;;;4978605;28;20185;-75
2023/03/23 08:31:37;;;;;;;4.78;4.25;;;14.10;78.10;;;;;;4980308;28;20213;-73
2023/03/23 08:34:04;;;;;;;6.82;5.00;;;15.00;75.30;;;;;;4979713;28;20185;-75
2023/03/23 08:36:32;;;;;;;5.63;4.63;;;16.10;73.40;;;;;;4986109;28;20189;-75
2023/03/23 08:38:58;;;;;;;12.73;6.80;;;17.40;70.70;;;;;;4975460;28;20193;-75
2023/03/23 08:41:24;;;;;;;8.45;6.80;;;18.50;69.30;;;;;;4982306;28;20177;-75
2023/03/23 08:43:50;;;;;;;8.65;5.82;;;19.40;66.70;;;;;;4982022;28;20181;-75
2023/03/23 08:46:16;;;;;;;7.32;5.45;;;20.20;64.90;;;;;;4980883;28;20214;-74
2023/03/23 08:48:43;;;;;;;7.45;4.70;;;21.10;63.50;;;;;;4980647;28;20257;-74
2023/03/23 08:51:10;;;;;;;5.28;4.07;;;21.60;62.80;;;;;;4979193;28;20587;-75
2023/03/23 08:53:36;;;;;;;3.97;3.70;;;21.90;60.00;;;;;;4972012;28;20190;-73
2023/03/23 08:56:10;;;;;;;4.82;4.43;;;22.20;57.90;;;;;;4975699;28;20209;-73
2023/03/23 08:58:38;;;;;;;4.93;4.53;;;22.40;58.50;;;;;;4980683;28;20261;-75
2023/03/23 09:01:06;;;;;;;4.97;4.57;;;22.50;59.70;;;;;;4979213;28;20213;-74
2023/03/23 09:03:32;;;;;;;5.07;4.60;;;22.30;58.80;;;;;;4980871;28;20180;-76
2023/03/23 09:06:00;;;;;;;5.90;4.03;;;22.10;59.10;;;;;;4979090;28;20343;-74
2023/03/23 09:08:28;;;;;;;4.10;3.80;;;22.30;59.40;;;;;;4978866;28;20185;-75
2023/03/23 09:10:55;;;;;;;3.78;3.47;;;22.20;57.00;;;;;;4977200;28;20664;-75
2023/03/23 09:13:21;;;;;;;3.63;3.22;;;21.80;55.60;;;;;;4973884;28;20648;-75
2023/03/23 09:15:47;;;;;;;3.53;3.22;;;21.60;58.40;;;;;;4978037;28;20185;-75
2023/03/23 09:18:13;;;;;;;3.30;2.65;;;22.00;59.10;;;;;;4979408;28;20176;-74
2023/03/23 09:20:38;;;;;;;2.80;2.70;;;22.80;59.50;;;;;;4981738;28;20174;-75
2023/03/23 09:23:05;;;;;;;2.63;2.53;;;23.70;56.40;;;;;;4980555;28;20659;-74
2023/03/23 09:25:31;;;;;;;2.95;2.85;;;24.20;56.10;;;;;;4980441;28;20222;-75
2023/03/23 09:27:58;;;;;;;2.75;2.55;;;24.20;54.30;;;;;;4978761;28;20591;-74
2023/03/23 09:30:30;;;;;;;2.88;2.70;;;24.30;53.10;;;;;;4980756;28;20194;-74
2023/03/23 09:32:57;;;;;;;3.22;3.13;;;24.60;54.50;;;;;;4983606;28;20221;-75
2023/03/23 09:35:23;;;;;;;3.20;2.90;;;25.30;54.20;;;;;;4982079;28;20174;-75
2023/03/23 09:37:54;;;;;;;4.20;3.88;;;25.50;50.60;;;;;;4976261;28;20320;-75
2023/03/23 09:40:27;;;;;;;4.45;4.05;;;24.90;50.40;;;;;;4983199;28;20277;-75
2023/03/23 09:43:21;;;;;;;3.40;3.17;;;24.80;55.00;;;;;;4984348;28;20185;-74
2023/03/23 09:45:55;;;;;;;3.88;3.67;;;24.40;52.10;;;;;;4978653;28;20202;-73
2023/03/23 09:48:25;;;;;;;3.60;3.38;;;23.90;53.90;;;;;;4982644;28;20182;-75
2023/03/23 09:51:00;;;;;;;3.45;3.15;;;23.80;55.10;;;;;;4978943;28;20550;-74
2023/03/23 09:53:37;;;;;;;6.10;3.20;;;24.00;55.90;;;;;;4978020;28;20220;-75
2023/03/23 09:56:10;;;;;;;4.10;3.58;;;24.70;56.00;;;;;;4982201;28;20268;-75
2023/03/23 09:58:58;;;;;;;3.50;3.30;;;25.50;52.10;;;;;;4979355;28;20190;-75
2023/03/23 10:01:34;;;;;;;3.35;3.05;;;25.30;51.60;;;;;;4982442;28;20309;-75
2023/03/23 10:04:37;;;;;;;4.38;3.67;;;25.10;54.10;;;;;;4981477;28;20186;-75
2023/03/23 10:07:16;;;;;;;3.60;3.30;;;25.30;53.50;;;;;;4979283;28;20666;-75
2023/03/23 10:09:45;;;;;;;2.45;2.35;;;25.60;51.60;;;;;;4984131;28;20256;-75
2023/03/23 10:12:19;;;;;;;2.88;2.75;;;26.00;52.70;;;;;;4982915;28;20216;-75
2023/03/23 10:14:59;;;;;;;3.10;2.90;;;26.70;52.80;;;;;;4983483;28;20192;-75
2023/03/23 10:17:29;;;;;;;3.50;3.30;;;27.20;50.20;;;;;;4977401;28;20190;-75
2023/03/23 10:20:32;;;;;;;5.45;3.17;;;26.80;50.00;;;;;;4978208;28;20260;-74
2023/03/23 10:23:14;;;;;;;3.72;2.88;;;26.40;49.60;;;;;;4980308;28;20273;-75
2023/03/23 10:25:46;;;;;;;3.60;3.30;;;26.60;48.70;;;;;;4980324;28;20197;-74
2023/03/23 10:28:17;;;;;;;4.03;2.95;;;26.50;49.90;;;;;;4982831;28;20574;-74
2023/03/23 10:30:45;;;;;;;3.10;2.90;;;26.00;49.10;;;;;;4980858;28;20190;-74
2023/03/23 10:33:37;;;;;;;3.35;3.10;;;25.90;48.20;;;;;;4978120;28;20182;-73
2023/03/23 10:36:28;;;;;;;2.83;2.70;;;26.00;50.30;;;;;;4976613;28;20300;-74
2023/03/23 10:39:03;;;;;;;2.38;2.38;;;26.50;50.30;;;;;;4978210;28;20264;-75
2023/03/23 10:41:30;;;;;;;2.40;2.38;;;27.30;50.10;;;;;;4978875;28;20185;-75
2023/03/23 10:43:56;;;;;;;2.83;2.72;;;28.20;49.60;;;;;;4981645;28;20273;-75
2023/03/23 10:46:55;;;;;;;2.92;2.83;;;29.20;48.10;;;;;;4975788;28;20346;-75
2023/03/23 10:49:30;;;;;;;3.13;2.55;;;30.20;47.20;;;;;;4981956;28;20185;-75
2023/03/23 10:52:34;;;;;;;3.35;3.05;;;30.70;48.80;;;;;;4979129;28;20240;-76
2023/03/23 10:55:07;;;;;;;3.35;3.15;;;30.60;45.40;;;;;;4945528;29;20191;-75
2023/03/23 10:57:34;;;;;;;3.22;3.03;;;30.60;48.80;;;;;;4946197;29;20234;-74
2023/03/23 11:00:07;;;;;;;3.05;2.88;;;30.70;47.10;;;;;;4944679;29;20673;-76
2023/03/23 11:02:39;;;;;;;3.10;3.00;;;30.60;47.90;;;;;;4944349;29;20191;-76
2023/03/23 11:05:26;;;;;;;2.80;2.70;;;30.20;48.80;;;;;;4944894;28;20245;-75
2023/03/23 11:07:56;;;;;;;2.85;2.75;;;29.80;45.10;;;;;;4945186;29;20187;-75
2023/03/23 11:10:34;;;;;;;2.85;2.75;;;29.20;46.40;;;;;;4945705;29;20186;-74
2023/03/23 11:13:00;;;;;;;3.20;2.97;;;28.90;49.80;;;;;;4945384;29;20239;-75
2023/03/23 11:15:31;;;;;;;2.28;2.17;;;28.90;47.60;;;;;;4945130;28;20183;-75
2023/03/23 11:17:59;;;;;;;3.17;2.97;;;28.90;49.20;;;;;;4945489;29;20234;-74
2023/03/23 11:20:28;;;;;;;2.75;2.65;;;29.00;50.60;;;;;;4945030;29;20273;-74
2023/03/23 11:22:54;;;;;;;2.13;1.92;;;29.20;49.20;;;;;;4929371;29;20569;-75
2023/03/23 11:25:20;;;;;;;2.50;2.40;;;29.60;49.50;;;;;;4946255;29;20199;-74
2023/03/23 11:27:47;;;;;;;2.65;2.50;;;29.80;48.10;;;;;;4945787;29;20609;-74
2023/03/23 11:30:31;;;;;;;2.40;2.33;;;29.80;46.90;;;;;;4944860;29;20739;-75
2023/03/23 11:33:01;;;;;;;2.60;2.50;;;29.40;45.30;;;;;;4980532;28;20213;-75
2023/03/23 11:35:28;;;;;;;2.72;2.33;;;29.30;48.00;;;;;;4976852;28;20178;-75
2023/03/23 11:37:57;;;;;;;2.13;2.03;;;29.40;49.50;;;;;;4979276;28;20187;-74
2023/03/23 11:40:29;;;;;;;2.70;2.60;;;29.70;47.90;;;;;;4981934;28;20197;-74
2023/03/23 11:43:15;;;;;;;3.00;2.80;;;29.60;44.90;;;;;;4979083;28;20196;-75
2023/03/23 11:45:47;;;;;;;3.08;2.92;;;29.40;45.00;;;;;;4976232;28;20197;-74
2023/03/23 11:48:39;;;;;;;3.13;2.92;;;29.60;45.10;;;;;;4975889;28;20186;-75
2023/03/23 11:51:13;;;;;;;2.85;2.50;;;29.60;44.00;;;;;;4972945;28;21181;-76
2023/03/23 11:53:41;;;;;;;2.55;2.45;;;29.40;47.20;;;;;;4981256;28;20196;-76
2023/03/23 11:56:26;;;;;;;2.22;2.13;;;29.50;48.90;;;;;;4981450;28;20687;-76
2023/03/23 11:58:54;;;;;;;2.63;2.53;;;29.40;46.20;;;;;;4981320;28;20185;-74
2023/03/23 12:01:43;;;;;;;3.00;2.78;;;29.40;47.40;;;;;;4983547;28;20186;-74
2023/03/23 12:04:27;;;;;;;3.05;2.92;;;29.50;45.70;;;;;;4978722;28;20228;-74
2023/03/23 12:07:17;;;;;;;5.35;2.83;;;29.70;47.80;;;;;;4983897;28;20208;-75
2023/03/23 12:09:43;;;;;;;1.92;1.83;;;29.80;44.90;;;;;;4980624;28;20178;-75
2023/03/23 12:12:18;;;;;;;3.03;2.67;;;30.00;49.30;;;;;;4985877;28;20226;-75
2023/03/23 12:14:53;;;;;;;2.58;2.47;;;30.30;48.00;;;;;;4981743;28;20169;-75
2023/03/23 12:17:28;;;;;;;2.40;2.28;;;30.90;47.20;;;;;;4985514;28;20876;-76
2023/03/23 12:20:14;;;;;;;3.00;2.88;;;31.50;44.60;;;;;;4982102;28;20185;-76
2023/03/23 12:22:55;;;;;;;2.78;2.67;;;31.90;47.00;;;;;;4984654;28;20256;-77
2023/03/23 12:25:29;;;;;;;3.00;2.90;;;32.20;45.90;;;;;;4980253;28;20482;-76
2023/03/23 12:28:01;;;;;;;2.28;2.17;;;32.40;44.60;;;;;;4984098;28;20588;-76
2023/03/23 12:30:51;;;;;;;2.30;2.15;;;32.40;44.70;;;;;;4982705;28;20836;-76
2023/03/23 12:33:22;;;;;;;2.72;2.63;;;32.30;42.30;;;;;;4983092;28;20680;-75
2023/03/23 12:36:06;;;;;;;2.55;2.45;;;32.40;44.70;;;;;;4978808;28;20613;-74
2023/03/23 12:38:46;;;;;;;2.40;2.30;;;32.40;43.30;;;;;;4977251;28;20186;-75
2023/03/23 12:41:26;;;;;;;2.90;2.72;;;32.50;43.30;;;;;;4981238;28;20192;-74
2023/03/23 12:43:56;;;;;;;4.45;2.63;;;32.70;44.10;;;;;;4984733;28;20592;-74
2023/03/23 12:46:27;;;;;;;2.50;2.40;;;32.90;45.30;;;;;;4979063;28;20189;-74
2023/03/23 12:49:18;;;;;;;2.20;2.20;;;33.10;43.70;;;;;;4975551;28;20194;-75
2023/03/23 12:52:02;;;;;;;2.30;2.20;;;33.40;42.10;;;;;;4982572;28;20279;-74
2023/03/23 12:54:28;;;;;;;3.17;2.88;;;33.50;40.40;;;;;;4984860;28;20293;-74
2023/03/23 12:57:01;;;;;;;2.55;2.45;;;33.30;43.60;;;;;;4983377;28;20221;-73
2023/03/23 12:59:35;;;;;;;2.60;2.38;;;33.00;45.30;;;;;;4980209;28;20193;-74
2023/03/23 13:02:35;;;;;;;2.72;2.60;;;32.90;44.70;;;;;;4983355;28;20201;-74
2023/03/23 13:05:26;;;;;;;2.40;2.25;;;32.80;40.30;;;;;;4943026;29;20190;-75
2023/03/23 13:08:14;;;;;;;2.83;2.63;;;32.50;41.60;;;;;;4944244;28;20187;-75